Time;durP1;ratioP1;P1;durP2;ratioP2;P2;SDS_P1;SDS_P2;PMS_P1;PMS_P2;Temp;Humidity;BMP_temperature;BMP_pressure;BME280_temperature;BME280_humidity;BME280_pressure;Samples;Min_cycle;Max_cycle;Signal;HPM_P1;HPM_P2
2022/11/29 00:01:39;;;;;;;;;;;;;;;4.85;77.29;101646.66;4891707;29;3622;-89
2022/11/29 00:04:06;;;;;;;;;;;;;;;4.92;77.07;101633.53;4886145;29;3521;-88
2022/11/29 00:06:33;;;;;;;;;;;;;;;4.91;77.03;101639.84;4883655;29;3655;-89
2022/11/29 00:08:59;;;;;;;;;;;;;;;4.82;77.38;101641.63;4892787;29;3079;-88
2022/11/29 00:14:10;;;;;;;;;;;;;;;4.92;77.13;101639.72;4877222;29;2745;-88
2022/11/29 00:16:39;;;;;;;;;;;;;;;4.82;77.39;101641.63;4907340;29;3495;-90
2022/11/29 00:19:06;;;;;;;;;;;;;;;4.85;77.15;101643.16;4907653;29;3514;-89
2022/11/29 00:21:32;;;;;;;;;;;;;;;4.80;77.63;101630.28;4892323;29;2830;-87
2022/11/29 00:23:59;;;;;;;;;;;;;;;4.91;77.21;101626.50;4892311;29;3414;-87
2022/11/29 00:26:26;;;;;;;;;;;;;;;4.98;76.63;101627.56;4891036;29;3363;-88
2022/11/29 00:28:52;;;;;;;;;;;;;;;4.86;77.20;101635.00;4903506;29;3400;-88
2022/11/29 00:31:19;;;;;;;;;;;;;;;4.88;77.11;101632.16;4904199;29;3506;-87
2022/11/29 00:33:46;;;;;;;;;;;;;;;4.90;77.19;101640.84;4908235;29;2618;-89
2022/11/29 00:36:12;;;;;;;;;;;;;;;4.87;77.12;101646.50;4888682;29;3668;-89
2022/11/29 00:38:39;;;;;;;;;;;;;;;4.86;77.26;101643.00;4905889;29;3618;-88
2022/11/29 00:41:06;;;;;;;;;;;;;;;4.81;77.43;101647.97;4890823;29;2648;-88
2022/11/29 00:43:32;;;;;;;;;;;;;;;4.75;77.99;101638.75;4889840;29;3581;-88
2022/11/29 00:45:59;;;;;;;;;;;;;;;4.89;77.17;101650.69;4906631;29;3568;-88
2022/11/29 00:48:25;;;;;;;;;;;;;;;4.96;77.05;101643.72;4891269;29;3544;-89
2022/11/29 00:50:52;;;;;;;;;;;;;;;4.87;77.18;101643.84;4887571;29;3585;-89
2022/11/29 00:53:19;;;;;;;;;;;;;;;4.84;77.38;101645.00;4887827;29;3524;-88
2022/11/29 00:55:46;;;;;;;;;;;;;;;4.85;77.17;101649.31;4891957;29;3716;-88
2022/11/29 00:58:12;;;;;;;;;;;;;;;4.78;77.45;101648.28;4885216;29;3382;-89
2022/11/29 01:00:39;;;;;;;;;;;;;;;4.82;77.31;101660.31;4884966;29;3577;-89
2022/11/29 01:03:06;;;;;;;;;;;;;;;4.83;77.31;101648.66;4886708;29;3370;-89
2022/11/29 01:05:41;;;;;;;;;;;;;;;4.76;77.73;101656.47;4872528;29;3399;-87
2022/11/29 01:08:23;;;;;;;;;;;;;;;4.76;77.66;101653.78;4885659;29;3542;-89
2022/11/29 01:10:53;;;;;;;;;;;;;;;4.71;77.80;101657.91;4903825;29;3303;-89
2022/11/29 01:13:20;;;;;;;;;;;;;;;4.73;77.84;101658.56;4904948;29;3260;-89
2022/11/29 01:15:47;;;;;;;;;;;;;;;4.71;77.63;101653.41;4885555;29;2969;-87
2022/11/29 01:18:14;;;;;;;;;;;;;;;4.73;77.70;101648.72;4886278;29;3362;-88
2022/11/29 01:20:41;;;;;;;;;;;;;;;4.88;77.31;101654.38;4887202;29;3404;-88
2022/11/29 01:23:07;;;;;;;;;;;;;;;4.76;77.63;101658.25;4891293;29;3405;-88
2022/11/29 01:25:34;;;;;;;;;;;;;;;4.77;77.54;101660.78;4886540;29;3473;-89
2022/11/29 01:28:00;;;;;;;;;;;;;;;4.80;77.58;101661.47;4884237;29;3555;-89
2022/11/29 01:30:27;;;;;;;;;;;;;;;4.75;77.58;101656.59;4885984;29;3548;-88
2022/11/29 01:32:53;;;;;;;;;;;;;;;4.80;77.51;101667.66;4887349;29;3612;-88
2022/11/29 01:35:20;;;;;;;;;;;;;;;4.84;77.24;101660.16;4885783;29;3394;-86
2022/11/29 01:37:46;;;;;;;;;;;;;;;4.87;77.34;101662.53;4885298;29;3590;-88
2022/11/29 01:40:14;;;;;;;;;;;;;;;4.86;77.25;101668.88;4907823;29;3358;-88
2022/11/29 01:42:40;;;;;;;;;;;;;;;4.81;77.21;101669.31;4887127;29;3375;-88
2022/11/29 01:45:07;;;;;;;;;;;;;;;4.79;77.50;101671.28;4887050;29;2660;-88
2022/11/29 01:47:34;;;;;;;;;;;;;;;4.80;77.38;101673.00;4886199;29;3487;-89
2022/11/29 01:50:00;;;;;;;;;;;;;;;4.75;77.59;101676.13;4886828;29;3384;-88
2022/11/29 01:52:27;;;;;;;;;;;;;;;4.82;77.08;101680.84;4884110;29;3260;-87
2022/11/29 01:54:54;;;;;;;;;;;;;;;4.80;77.31;101674.84;4885629;29;3586;-88
2022/11/29 01:57:20;;;;;;;;;;;;;;;4.88;77.33;101673.06;4903278;29;3371;-87
2022/11/29 01:59:47;;;;;;;;;;;;;;;4.82;77.26;101680.84;4886235;29;3538;-88
2022/11/29 02:02:14;;;;;;;;;;;;;;;4.86;77.21;101680.38;4886171;29;3712;-89
2022/11/29 02:04:40;;;;;;;;;;;;;;;4.88;76.98;101678.41;4904316;29;3511;-88
2022/11/29 02:07:07;;;;;;;;;;;;;;;4.94;77.01;101679.59;4885568;29;3644;-88
2022/11/29 02:09:33;;;;;;;;;;;;;;;4.98;76.57;101670.28;4885663;29;3568;-88
2022/11/29 02:12:00;;;;;;;;;;;;;;;4.92;76.92;101678.94;4903706;29;3976;-88
2022/11/29 02:14:27;;;;;;;;;;;;;;;5.07;76.41;101681.88;4885070;29;3428;-88
2022/11/29 02:16:53;;;;;;;;;;;;;;;5.07;76.27;101687.22;4871587;29;3391;-88
2022/11/29 02:19:20;;;;;;;;;;;;;;;5.06;76.46;101682.84;4886127;29;3169;-88
2022/11/29 02:21:46;;;;;;;;;;;;;;;4.99;76.58;101685.31;4894027;29;3604;-88
2022/11/29 02:24:13;;;;;;;;;;;;;;;5.07;76.42;101692.56;4891988;29;3417;-89
2022/11/29 02:26:40;;;;;;;;;;;;;;;5.11;76.22;101693.91;4899464;29;2743;-89
2022/11/29 02:29:07;;;;;;;;;;;;;;;5.09;76.29;101687.88;4882873;29;3599;-88
2022/11/29 02:31:33;;;;;;;;;;;;;;;5.05;76.31;101690.03;4885476;29;3551;-89
2022/11/29 02:34:00;;;;;;;;;;;;;;;5.03;76.35;101691.16;4868376;29;3558;-90
2022/11/29 02:36:26;;;;;;;;;;;;;;;5.04;76.43;101699.03;4867885;29;3378;-88
2022/11/29 02:38:53;;;;;;;;;;;;;;;4.99;76.50;101698.66;4861136;29;3560;-88
2022/11/29 02:41:19;;;;;;;;;;;;;;;5.07;76.30;101697.91;4883699;29;2841;-88
2022/11/29 02:43:46;;;;;;;;;;;;;;;5.10;76.09;101711.75;4884579;29;3582;-89
2022/11/29 02:46:12;;;;;;;;;;;;;;;5.13;75.92;101702.59;4884056;29;2541;-88
2022/11/29 02:48:39;;;;;;;;;;;;;;;5.05;76.35;101707.88;4882984;29;3617;-88
2022/11/29 02:51:05;;;;;;;;;;;;;;;5.13;76.10;101706.13;4887177;29;3532;-88
2022/11/29 02:53:32;;;;;;;;;;;;;;;5.15;75.97;101705.97;4884817;29;3057;-88
2022/11/29 02:55:59;;;;;;;;;;;;;;;5.18;76.05;101708.34;4886348;29;3443;-88
2022/11/29 02:58:25;;;;;;;;;;;;;;;5.17;75.97;101715.47;4904224;29;3505;-87
2022/11/29 03:00:52;;;;;;;;;;;;;;;5.12;76.07;101707.13;4903180;29;2834;-88
2022/11/29 03:03:18;;;;;;;;;;;;;;;5.15;75.96;101716.66;4883956;29;3617;-88
2022/11/29 03:05:46;;;;;;;;;;;;;;;5.19;75.74;101705.50;4903021;29;3467;-88
2022/11/29 03:08:12;;;;;;;;;;;;;;;5.23;75.86;101716.69;4899079;29;3526;-88
2022/11/29 03:10:39;;;;;;;;;;;;;;;5.19;75.90;101710.81;4885199;29;3447;-88
2022/11/29 03:13:06;;;;;;;;;;;;;;;5.08;76.13;101713.75;4887290;29;3503;-86
2022/11/29 03:15:32;;;;;;;;;;;;;;;5.19;76.02;101720.69;4887554;29;3461;-88
2022/11/29 03:18:01;;;;;;;;;;;;;;;5.27;75.53;101710.06;4885020;29;3546;-88
2022/11/29 03:20:27;;;;;;;;;;;;;;;5.24;75.77;101721.06;4888472;29;3464;-88
2022/11/29 03:22:54;;;;;;;;;;;;;;;5.33;75.36;101719.28;4874169;29;3625;-88
2022/11/29 03:25:20;;;;;;;;;;;;;;;5.30;75.33;101728.44;4888091;29;3248;-88
2022/11/29 03:27:47;;;;;;;;;;;;;;;5.17;76.07;101722.66;4904644;29;3611;-88
2022/11/29 03:30:14;;;;;;;;;;;;;;;5.26;75.67;101715.53;4886790;29;3660;-87
2022/11/29 03:32:41;;;;;;;;;;;;;;;5.28;75.53;101718.91;4906152;29;3598;-88
2022/11/29 03:35:07;;;;;;;;;;;;;;;5.25;75.67;101717.38;4890195;29;3496;-88
2022/11/29 03:37:34;;;;;;;;;;;;;;;5.28;75.54;101717.06;4873292;29;3375;-88
2022/11/29 03:40:01;;;;;;;;;;;;;;;5.25;75.70;101720.06;4909417;29;3242;-88
2022/11/29 03:42:28;;;;;;;;;;;;;;;5.22;75.73;101725.72;4889762;29;3466;-87
2022/11/29 03:44:54;;;;;;;;;;;;;;;5.27;75.74;101717.25;4905198;29;3455;-86
2022/11/29 03:47:21;;;;;;;;;;;;;;;5.35;75.45;101725.28;4888588;29;3511;-88
2022/11/29 03:49:47;;;;;;;;;;;;;;;5.31;75.26;101722.09;4892420;29;2603;-88
2022/11/29 03:52:14;;;;;;;;;;;;;;;5.28;75.64;101726.91;4904125;29;3679;-88
2022/11/29 03:54:40;;;;;;;;;;;;;;;5.28;75.64;101727.75;4887165;29;3499;-88
2022/11/29 03:57:07;;;;;;;;;;;;;;;5.27;75.75;101720.75;4886151;29;2646;-88
2022/11/29 03:59:34;;;;;;;;;;;;;;;5.24;75.65;101721.06;4907885;29;3516;-87
2022/11/29 04:02:01;;;;;;;;;;;;;;;5.30;75.55;101725.78;4886502;29;3578;-87
2022/11/29 04:04:28;;;;;;;;;;;;;;;5.27;75.60;101720.75;4906865;29;3466;-88
2022/11/29 04:06:54;;;;;;;;;;;;;;;5.27;75.57;101725.25;4887174;29;3267;-88
2022/11/29 04:09:21;;;;;;;;;;;;;;;5.23;75.75;101727.38;4904792;29;3257;-88
2022/11/29 04:11:54;;;;;;;;;;;;;;;5.27;75.75;101731.44;4887892;29;3419;-88
2022/11/29 04:14:21;;;;;;;;;;;;;;;5.34;75.45;101740.47;4901937;29;3530;-88
2022/11/29 04:16:50;;;;;;;;;;;;;;;5.32;75.60;101731.78;4885964;29;3396;-88
2022/11/29 04:19:16;;;;;;;;;;;;;;;5.19;75.80;101734.88;4888141;29;3469;-87
2022/11/29 04:21:43;;;;;;;;;;;;;;;5.17;76.18;101728.84;4885463;29;2586;-89
2022/11/29 04:24:09;;;;;;;;;;;;;;;5.23;75.78;101732.72;4906165;29;3440;-88
2022/11/29 04:26:36;;;;;;;;;;;;;;;5.34;75.31;101735.13;4891230;29;3532;-88
2022/11/29 04:29:03;;;;;;;;;;;;;;;5.22;75.66;101736.41;4903830;29;3586;-88
2022/11/29 04:31:30;;;;;;;;;;;;;;;5.16;75.87;101735.19;4885521;29;3296;-88
2022/11/29 04:33:56;;;;;;;;;;;;;;;5.32;75.57;101730.94;4884327;29;2663;-88
2022/11/29 04:36:23;;;;;;;;;;;;;;;5.30;75.48;101733.78;4902092;29;2538;-87
2022/11/29 04:38:50;;;;;;;;;;;;;;;5.21;76.03;101735.56;4887945;29;3337;-87
2022/11/29 04:41:16;;;;;;;;;;;;;;;5.10;76.18;101727.78;4885397;29;3318;-88
2022/11/29 04:43:43;;;;;;;;;;;;;;;5.15;75.96;101736.19;4886697;29;3569;-87
2022/11/29 04:46:09;;;;;;;;;;;;;;;5.21;75.83;101734.72;4884077;29;3556;-88
2022/11/29 04:48:36;;;;;;;;;;;;;;;5.24;75.71;101732.56;4886109;29;3428;-88
2022/11/29 04:51:02;;;;;;;;;;;;;;;5.20;75.89;101736.53;4901993;29;3533;-88
2022/11/29 04:53:29;;;;;;;;;;;;;;;5.22;75.88;101737.22;4886664;29;3350;-89
2022/11/29 04:55:56;;;;;;;;;;;;;;;5.18;76.03;101732.38;4885204;29;2597;-89
2022/11/29 04:58:22;;;;;;;;;;;;;;;5.28;75.66;101742.94;4903102;29;3271;-88
2022/11/29 05:00:48;;;;;;;;;;;;;;;5.31;75.69;101740.78;4879954;29;3438;-87
2022/11/29 05:03:16;;;;;;;;;;;;;;;5.22;75.67;101745.25;4885021;29;3552;-87
2022/11/29 05:05:43;;;;;;;;;;;;;;;5.34;75.46;101740.47;4886971;29;3608;-88
2022/11/29 05:08:10;;;;;;;;;;;;;;;5.22;75.70;101737.22;4902937;29;3293;-89
2022/11/29 05:10:36;;;;;;;;;;;;;;;5.20;75.73;101741.03;4862530;29;3530;-88
2022/11/29 05:13:03;;;;;;;;;;;;;;;5.27;75.73;101747.47;4882687;29;3396;-88
2022/11/29 05:15:29;;;;;;;;;;;;;;;5.18;75.57;101746.56;4886540;29;3440;-87
2022/11/29 05:17:57;;;;;;;;;;;;;;;5.19;75.58;101753.56;4884867;29;3399;-89
2022/11/29 05:20:23;;;;;;;;;;;;;;;5.23;75.83;101756.75;4901661;29;2633;-87
2022/11/29 05:22:50;;;;;;;;;;;;;;;5.20;75.95;101760.56;4904221;29;3115;-87
2022/11/29 05:25:17;;;;;;;;;;;;;;;5.24;75.80;101759.28;4884038;29;3540;-88
2022/11/29 05:27:43;;;;;;;;;;;;;;;5.23;75.70;101770.13;4868975;29;3298;-89
2022/11/29 05:30:10;;;;;;;;;;;;;;;5.21;75.88;101766.78;4891295;29;3423;-87
2022/11/29 05:32:36;;;;;;;;;;;;;;;5.24;75.72;101764.63;4887520;29;3457;-87
2022/11/29 05:35:03;;;;;;;;;;;;;;;5.17;76.10;101762.72;4890147;29;3272;-88
2022/11/29 05:37:30;;;;;;;;;;;;;;;5.15;76.01;101762.06;4883249;29;3552;-89
2022/11/29 05:39:56;;;;;;;;;;;;;;;5.15;76.08;101770.06;4880532;29;3173;-88
2022/11/29 05:42:23;;;;;;;;;;;;;;;5.19;75.88;101772.25;4901572;29;3541;-88
2022/11/29 05:44:49;;;;;;;;;;;;;;;5.19;75.95;101772.25;4900033;29;3443;-88
2022/11/29 05:47:16;;;;;;;;;;;;;;;5.16;76.24;101777.91;4885467;29;3448;-87
2022/11/29 05:49:42;;;;;;;;;;;;;;;5.24;75.57;101777.16;4902565;29;3454;-89
2022/11/29 05:52:09;;;;;;;;;;;;;;;5.17;75.95;101779.56;4885768;29;3372;-90
2022/11/29 05:54:35;;;;;;;;;;;;;;;5.27;75.78;101776.00;4900745;29;3590;-88
2022/11/29 05:57:02;;;;;;;;;;;;;;;5.22;75.77;101781.81;4902318;29;3342;-87
2022/11/29 05:59:29;;;;;;;;;;;;;;;5.07;76.34;101786.00;4901283;29;3490;-86
2022/11/29 06:01:56;;;;;;;;;;;;;;;5.18;76.24;101785.78;4901226;29;3443;-88
2022/11/29 06:04:22;;;;;;;;;;;;;;;5.17;76.14;101786.75;4901264;29;3372;-88
2022/11/29 06:06:49;;;;;;;;;;;;;;;5.12;76.28;101794.41;4884520;29;3316;-87
2022/11/29 06:09:16;;;;;;;;;;;;;;;5.12;76.21;101792.59;4882447;29;3382;-86
2022/11/29 06:11:42;;;;;;;;;;;;;;;5.21;76.15;101790.81;4885754;29;3529;-87
2022/11/29 06:14:09;;;;;;;;;;;;;;;5.29;75.60;101795.38;4882813;29;3500;-89
2022/11/29 06:16:35;;;;;;;;;;;;;;;5.26;75.75;101796.50;4883225;29;3432;-87
2022/11/29 06:19:02;;;;;;;;;;;;;;;5.12;75.99;101794.41;4899523;29;3533;-87
2022/11/29 06:21:28;;;;;;;;;;;;;;;5.13;76.28;101790.75;4902551;29;2707;-87
2022/11/29 06:23:56;;;;;;;;;;;;;;;5.16;76.02;101795.78;4882273;29;3669;-88
2022/11/29 06:26:24;;;;;;;;;;;;;;;5.23;75.89;101799.50;4898934;29;3518;-87
2022/11/29 06:28:50;;;;;;;;;;;;;;;5.28;75.50;101801.72;4901881;29;3695;-88
2022/11/29 06:31:17;;;;;;;;;;;;;;;5.18;75.87;101799.97;4887046;29;3156;-88
2022/11/29 06:33:43;;;;;;;;;;;;;;;5.08;76.21;101812.56;4901018;29;2513;-88
2022/11/29 06:36:11;;;;;;;;;;;;;;;5.11;76.03;101816.75;4908928;29;3373;-88
2022/11/29 06:38:37;;;;;;;;;;;;;;;5.17;75.84;101810.78;4902205;29;3797;-88
2022/11/29 06:41:04;;;;;;;;;;;;;;;5.16;76.04;101815.31;4899728;29;2546;-87
2022/11/29 06:43:30;;;;;;;;;;;;;;;5.09;76.21;101816.06;4904830;29;3604;-88
2022/11/29 06:45:57;;;;;;;;;;;;;;;5.33;75.34;101815.47;4907579;29;3474;-88
2022/11/29 06:48:23;;;;;;;;;;;;;;;5.23;75.69;101813.72;4890716;29;3540;-86
2022/11/29 06:50:50;;;;;;;;;;;;;;;5.11;76.25;101814.91;4891784;29;2665;-87
2022/11/29 06:53:16;;;;;;;;;;;;;;;5.08;76.26;101817.91;4885947;29;3667;-87
2022/11/29 06:55:43;;;;;;;;;;;;;;;5.11;76.08;101814.91;4883898;29;3434;-87
2022/11/29 06:58:10;;;;;;;;;;;;;;;5.03;76.52;101822.00;4905993;29;3389;-87
2022/11/29 07:00:36;;;;;;;;;;;;;;;5.11;76.29;101825.59;4902375;29;3366;-86
2022/11/29 07:03:03;;;;;;;;;;;;;;;5.08;76.55;101823.22;4884553;29;3443;-87
2022/11/29 07:05:29;;;;;;;;;;;;;;;5.05;76.39;101828.88;4887569;29;3453;-88
2022/11/29 07:07:56;;;;;;;;;;;;;;;5.18;75.92;101833.88;4903928;29;3235;-87
2022/11/29 07:10:22;;;;;;;;;;;;;;;5.15;76.03;101836.84;4885195;29;3612;-87
2022/11/29 07:12:49;;;;;;;;;;;;;;;5.08;76.28;101833.91;4893898;29;3190;-88
2022/11/29 07:15:15;;;;;;;;;;;;;;;5.16;75.73;101839.34;4889027;29;3185;-88
2022/11/29 07:17:42;;;;;;;;;;;;;;;5.09;76.04;101832.09;4892678;29;3573;-89
2022/11/29 07:20:09;;;;;;;;;;;;;;;5.05;76.24;101839.56;4909499;29;3692;-88
2022/11/29 07:22:35;;;;;;;;;;;;;;;5.11;76.03;101836.28;4899850;29;3552;-89
2022/11/29 07:25:02;;;;;;;;;;;;;;;5.04;76.35;101840.56;4910696;29;3469;-89
2022/11/29 07:27:28;;;;;;;;;;;;;;;5.07;76.37;101845.59;4896841;29;3605;-89
2022/11/29 07:29:55;;;;;;;;;;;;;;;5.03;76.47;101854.06;4908820;29;3588;-89
2022/11/29 07:32:21;;;;;;;;;;;;;;;5.07;76.37;101853.63;4907526;29;3430;-89
2022/11/29 07:34:48;;;;;;;;;;;;;;;5.10;76.18;101864.00;4888760;29;3651;-88
2022/11/29 07:37:14;;;;;;;;;;;;;;;5.07;76.29;101864.28;4888215;29;3497;-89
2022/11/29 07:39:41;;;;;;;;;;;;;;;5.13;76.29;101850.34;4885847;29;3366;-92
2022/11/29 07:42:12;;;;;;;;;;;;;;;5.08;76.29;101857.94;4915315;29;1427;-91
2022/11/29 07:44:38;;;;;;;;;;;;;;;5.03;76.26;101862.94;4938601;29;1514;-91
2022/11/29 07:47:05;;;;;;;;;;;;;;;5.06;76.33;101862.63;4907079;29;2452;-91
2022/11/29 07:49:32;;;;;;;;;;;;;;;5.04;76.37;101863.75;4920385;29;1623;-91
2022/11/29 07:51:59;;;;;;;;;;;;;;;5.01;76.55;101867.56;4923352;29;2798;-88
2022/11/29 07:54:26;;;;;;;;;;;;;;;5.13;76.16;101868.19;4904918;29;1899;-89
2022/11/29 07:56:53;;;;;;;;;;;;;;;5.05;76.35;101865.44;4927299;29;1833;-91
2022/11/29 07:59:20;;;;;;;;;;;;;;;5.08;76.34;101873.13;4916393;29;2027;-91
2022/11/29 08:01:47;;;;;;;;;;;;;;;5.08;76.24;101873.97;4918463;29;1481;-91
2022/11/29 08:04:16;;;;;;;;;;;;;;;5.01;76.47;101871.06;4903557;29;1866;-91
2022/11/29 08:06:44;;;;;;;;;;;;;;;4.98;76.53;101873.22;4911119;29;2211;-91
2022/11/29 08:09:15;;;;;;;;;;;;;;;5.11;76.27;101875.50;4924158;29;1903;-90
2022/11/29 08:11:43;;;;;;;;;;;;;;;5.03;76.34;101878.97;4908564;29;1711;-91
2022/11/29 08:14:10;;;;;;;;;;;;;;;5.00;76.57;101877.41;4934457;29;1729;-91
2022/11/29 08:16:43;;;;;;;;;;;;;;;5.02;76.32;101879.91;4918081;29;1980;-91
2022/11/29 08:19:12;;;;;;;;;;;;;;;5.10;75.98;101880.00;4932363;29;1887;-91
2022/11/29 08:21:50;;;;;;;;;;;;;;;4.99;76.57;101878.38;4911540;29;1954;-91
2022/11/29 08:32:40;;;;;;;;;;;;;;;4.95;76.79;101885.03;4896052;29;1330;-91
2022/11/29 08:35:33;;;;;;;;;;;;;;;4.91;76.76;101877.47;4930640;29;1892;-91
2022/11/29 08:38:02;;;;;;;;;;;;;;;4.98;76.48;101889.25;4900181;29;1902;-90
2022/11/29 08:40:33;;;;;;;;;;;;;;;4.98;76.81;101887.41;4913821;29;1750;-90
2022/11/29 08:43:02;;;;;;;;;;;;;;;4.98;76.51;101892.75;4923519;29;2832;-89
2022/11/29 08:45:32;;;;;;;;;;;;;;;5.03;76.30;101886.97;4901944;29;2298;-89
2022/11/29 08:47:59;;;;;;;;;;;;;;;5.01;76.27;101886.25;4909803;29;2711;-89
2022/11/29 08:50:27;;;;;;;;;;;;;;;5.08;76.08;101886.50;4909637;29;3540;-87
2022/11/29 08:55:38;;;;;;;;;;;;;;;4.98;76.54;101891.91;4906794;29;3663;-90
2022/11/29 08:58:06;;;;;;;;;;;;;;;4.96;76.36;101900.06;4911895;29;2924;-89
2022/11/29 09:00:32;;;;;;;;;;;;;;;5.00;76.24;101904.13;4894638;29;3622;-89
2022/11/29 09:03:58;;;;;;;;;;;;;;;5.13;76.05;101901.06;4897716;29;3637;-89
2022/11/29 09:05:46;;;;;;;;;;;;;;;4.98;76.45;101898.09;4888157;29;3202;-89
2022/11/29 09:08:13;;;;;;;;;;;;;;;4.98;76.22;101903.41;4887459;29;3403;-90
2022/11/29 09:10:41;;;;;;;;;;;;;;;5.02;76.23;101906.63;4906896;29;3411;-89
2022/11/29 09:13:08;;;;;;;;;;;;;;;5.01;76.14;101899.63;4905295;29;3353;-89
2022/11/29 09:15:35;;;;;;;;;;;;;;;5.04;76.10;101896.66;4903924;29;2688;-90
2022/11/29 09:18:04;;;;;;;;;;;;;;;5.04;76.12;101907.31;4887204;29;2879;-90
2022/11/29 09:20:30;;;;;;;;;;;;;;;4.96;76.56;101904.56;4903655;29;3345;-90
2022/11/29 09:22:57;;;;;;;;;;;;;;;4.89;76.61;101901.66;4901547;29;3437;-89
2022/11/29 09:25:24;;;;;;;;;;;;;;;5.02;76.32;101909.28;4904355;29;3120;-88
2022/11/29 09:27:50;;;;;;;;;;;;;;;4.93;76.56;101907.53;4889907;29;3641;-89
2022/11/29 09:30:18;;;;;;;;;;;;;;;4.88;76.70;101908.00;4886919;29;3513;-89
2022/11/29 09:32:46;;;;;;;;;;;;;;;4.90;76.75;101910.50;4902607;29;2953;-90
2022/11/29 09:35:12;;;;;;;;;;;;;;;4.91;76.57;101906.81;4891433;29;3682;-90
2022/11/29 09:37:39;;;;;;;;;;;;;;;4.94;76.63;101904.72;4887727;29;3525;-89
2022/11/29 09:40:06;;;;;;;;;;;;;;;4.89;76.81;101903.50;4885331;29;3166;-89
2022/11/29 09:42:32;;;;;;;;;;;;;;;4.84;76.92;101908.44;4885292;29;3539;-89
2022/11/29 09:44:59;;;;;;;;;;;;;;;4.89;76.68;101901.66;4899786;29;3488;-88
2022/11/29 09:47:25;;;;;;;;;;;;;;;4.92;76.59;101904.03;4892310;29;2732;-89
2022/11/29 09:49:52;;;;;;;;;;;;;;;4.83;76.80;101902.25;4888051;29;3603;-89
2022/11/29 09:52:18;;;;;;;;;;;;;;;4.85;76.94;101902.94;4886612;29;3624;-89
2022/11/29 09:54:45;;;;;;;;;;;;;;;4.84;76.87;101905.75;4902040;29;3666;-90
2022/11/29 09:57:12;;;;;;;;;;;;;;;4.90;76.60;101911.34;4890332;29;3578;-89
2022/11/29 09:59:39;;;;;;;;;;;;;;;4.89;76.61;101908.84;4902466;29;3556;-90
2022/11/29 10:02:07;;;;;;;;;;;;;;;4.82;77.08;101913.06;4890549;29;3500;-90
2022/11/29 10:04:35;;;;;;;;;;;;;;;4.90;76.52;101914.00;4887738;29;2721;-90
2022/11/29 10:07:01;;;;;;;;;;;;;;;4.89;76.58;101917.66;4902808;29;2757;-88
2022/11/29 10:09:28;;;;;;;;;;;;;;;4.88;76.66;101917.81;4899789;29;3568;-90
2022/11/29 10:11:55;;;;;;;;;;;;;;;4.80;77.07;101920.41;4869987;29;3537;-89
2022/11/29 10:14:21;;;;;;;;;;;;;;;4.81;76.86;101920.25;4902009;29;3825;-89
2022/11/29 10:16:48;;;;;;;;;;;;;;;4.84;76.87;101921.78;4887551;29;3519;-89
2022/11/29 10:19:15;;;;;;;;;;;;;;;4.84;76.93;101925.28;4899876;29;3424;-90
2022/11/29 10:21:42;;;;;;;;;;;;;;;4.85;76.77;101924.28;4891138;29;2748;-89
2022/11/29 10:24:08;;;;;;;;;;;;;;;4.90;76.69;101910.50;4895215;29;2697;-89
2022/11/29 10:26:35;;;;;;;;;;;;;;;4.83;76.83;101920.09;4894921;29;3610;-89
2022/11/29 10:29:01;;;;;;;;;;;;;;;4.80;77.04;101921.25;4898109;29;2691;-89
2022/11/29 10:31:28;;;;;;;;;;;;;;;4.76;77.18;101918.03;4898648;29;2806;-90
2022/11/29 10:33:55;;;;;;;;;;;;;;;4.77;77.17;101917.03;4915587;29;3612;-89
2022/11/29 10:36:22;;;;;;;;;;;;;;;4.85;76.64;101926.94;4902158;29;2628;-90
2022/11/29 10:38:48;;;;;;;;;;;;;;;4.98;76.19;101924.78;4916368;29;2666;-89
2022/11/29 10:41:15;;;;;;;;;;;;;;;4.81;77.06;101925.56;4912607;29;2734;-89
2022/11/29 10:43:42;;;;;;;;;;;;;;;4.84;76.79;101925.28;4911547;29;2573;-90
2022/11/29 10:46:09;;;;;;;;;;;;;;;4.90;76.76;101924.69;4902110;29;2803;-89
2022/11/29 10:48:36;;;;;;;;;;;;;;;4.81;76.96;101924.75;4901285;29;2247;-90
2022/11/29 10:51:03;;;;;;;;;;;;;;;4.80;77.12;101931.09;4902172;29;2602;-90
2022/11/29 10:53:30;;;;;;;;;;;;;;;4.83;76.90;101928.94;4908647;29;2323;-88
2022/11/29 10:55:57;;;;;;;;;;;;;;;4.80;76.88;101925.75;4910634;29;3147;-89
2022/11/29 10:58:26;;;;;;;;;;;;;;;4.73;77.17;101925.47;4912624;29;2750;-90
2022/11/29 11:00:53;;;;;;;;;;;;;;;4.81;77.02;101932.75;4921688;29;1525;-90
2022/11/29 11:03:20;;;;;;;;;;;;;;;4.77;77.08;101929.53;4940689;29;2781;-90
2022/11/29 11:05:47;;;;;;;;;;;;;;;4.81;76.96;101927.41;4917476;29;2505;-89
2022/11/29 11:08:14;;;;;;;;;;;;;;;4.83;76.84;101933.47;4920573;29;2533;-90
2022/11/29 11:10:45;;;;;;;;;;;;;;;4.76;77.27;101928.72;4919739;29;2322;-91
2022/11/29 11:13:12;;;;;;;;;;;;;;;4.77;77.00;101933.06;4925743;29;3107;-89
2022/11/29 11:15:39;;;;;;;;;;;;;;;4.79;76.84;101932.88;4927780;29;2846;-89
2022/11/29 11:18:06;;;;;;;;;;;;;;;4.86;76.76;101931.31;4913765;29;3351;-87
2022/11/29 11:20:33;;;;;;;;;;;;;;;4.73;77.36;101928.97;4882694;29;3505;-87
2022/11/29 11:23:00;;;;;;;;;;;;;;;4.74;77.06;101928.00;4875360;29;2710;-88
2022/11/29 11:25:26;;;;;;;;;;;;;;;4.71;77.53;101930.13;4901227;29;3309;-88
2022/11/29 11:27:53;;;;;;;;;;;;;;;4.72;77.32;101942.50;4897425;29;3585;-86
2022/11/29 11:30:20;;;;;;;;;;;;;;;4.75;77.12;101935.00;4881845;29;3637;-86
2022/11/29 11:32:46;;;;;;;;;;;;;;;4.71;77.18;101938.97;4879843;29;3253;-88
2022/11/29 11:35:13;;;;;;;;;;;;;;;4.83;76.84;101939.63;4885515;29;3598;-88
2022/11/29 11:37:39;;;;;;;;;;;;;;;4.77;76.83;101934.88;4879275;29;3477;-86
2022/11/29 11:40:06;;;;;;;;;;;;;;;4.70;77.21;101937.28;4880961;29;3359;-87
2022/11/29 11:42:39;;;;;;;;;;;;;;;4.73;77.30;101931.66;4877663;29;3528;-87
2022/11/29 11:45:05;;;;;;;;;;;;;;;4.78;76.96;101933.88;4879602;29;3553;-87
2022/11/29 11:47:32;;;;;;;;;;;;;;;4.75;76.96;101932.34;4879139;29;3397;-87
2022/11/29 11:49:59;;;;;;;;;;;;;;;4.78;76.91;101932.06;4880686;29;3566;-85
2022/11/29 11:52:25;;;;;;;;;;;;;;;4.69;77.45;101935.59;4878289;29;3563;-85
2022/11/29 11:54:52;;;;;;;;;;;;;;;4.68;77.38;101938.44;4862902;29;3576;-86
2022/11/29 11:57:18;;;;;;;;;;;;;;;4.72;77.21;101942.50;4893186;29;3666;-85
2022/11/29 11:59:45;;;;;;;;;;;;;;;4.72;77.14;101940.66;4864192;29;3316;-85
2022/11/29 12:02:11;;;;;;;;;;;;;;;4.71;77.23;101935.47;4883145;29;3582;-86
2022/11/29 12:04:38;;;;;;;;;;;;;;;4.70;77.40;101939.94;4881692;29;3299;-86
2022/11/29 12:07:04;;;;;;;;;;;;;;;4.68;77.43;101939.28;4879061;29;3365;-84
2022/11/29 12:09:31;;;;;;;;;;;;;;;4.66;77.39;101943.09;4879773;29;3497;-86
2022/11/29 12:11:58;;;;;;;;;;;;;;;4.70;77.42;101941.78;4878915;29;3449;-87
2022/11/29 12:14:25;;;;;;;;;;;;;;;4.67;77.31;101936.75;4864220;29;3568;-86
2022/11/29 12:16:51;;;;;;;;;;;;;;;4.71;77.09;101938.16;4895763;29;3530;-87
2022/11/29 12:19:18;;;;;;;;;;;;;;;4.65;77.38;101936.06;4895397;29;3523;-88
2022/11/29 12:21:45;;;;;;;;;;;;;;;4.70;77.16;101931.94;4877747;29;3214;-88
2022/11/29 12:24:11;;;;;;;;;;;;;;;4.65;77.47;101944.06;4878976;29;3409;-88
2022/11/29 12:26:38;;;;;;;;;;;;;;;4.68;77.39;101941.13;4894943;29;3296;-88
2022/11/29 12:29:04;;;;;;;;;;;;;;;4.65;77.33;101936.91;4893444;29;3369;-88
2022/11/29 12:31:31;;;;;;;;;;;;;;;4.66;77.25;101943.91;4864078;29;3697;-88
2022/11/29 12:33:58;;;;;;;;;;;;;;;4.66;77.35;101938.56;4882467;29;3564;-85
2022/11/29 12:36:25;;;;;;;;;;;;;;;4.72;77.11;101947.81;4877707;29;3704;-85
2022/11/29 12:38:52;;;;;;;;;;;;;;;4.70;77.11;101941.78;4885781;29;2557;-86
2022/11/29 12:41:19;;;;;;;;;;;;;;;4.65;77.38;101952.09;4894065;29;3524;-89
2022/11/29 12:43:46;;;;;;;;;;;;;;;4.71;77.13;101955.00;4867223;29;3429;-88
2022/11/29 12:46:36;;;;;;;;;;;;;;;;;;;;;
2022/11/29 12:49:25;;;;;;;;;;;;;;;4.68;77.43;101951.78;4887712;29;2766;-88
2022/11/29 12:51:52;;;;;;;;;;;;;;;4.73;77.12;101950.31;4901694;29;2600;-89
2022/11/29 12:54:19;;;;;;;;;;;;;;;4.77;76.99;101951.72;4888971;29;3047;-88
2022/11/29 12:56:46;;;;;;;;;;;;;;;4.80;76.84;101955.09;4871263;29;3674;-89
2022/11/29 12:59:12;;;;;;;;;;;;;;;4.71;76.93;101947.00;4885509;29;3572;-90
2022/11/29 13:01:39;;;;;;;;;;;;;;;4.65;77.32;101949.41;4869541;29;2827;-89
2022/11/29 13:04:05;;;;;;;;;;;;;;;4.68;77.23;101949.94;4870638;29;2848;-89
2022/11/29 13:06:32;;;;;;;;;;;;;;;4.63;77.28;101946.03;4883819;29;3664;-91
2022/11/29 13:08:59;;;;;;;;;;;;;;;4.70;77.02;101952.47;4874755;29;2669;-90
2022/11/29 13:11:25;;;;;;;;;;;;;;;4.63;77.49;101954.06;4875119;29;2468;-90